Time;durP1;ratioP1;P1;durP2;ratioP2;P2;SDS_P1;SDS_P2;PMS_P1;PMS_P2;Temp;Humidity;BMP_temperature;BMP_pressure;BME280_temperature;BME280_humidity;BME280_pressure;Samples;Min_cycle;Max_cycle;Signal;HPM_P1;HPM_P2
2022/03/14 00:01:04;;;;;;;;;9.50;6.75;;;;;8.73;58.04;101401.09;5061231;28;45535;-58
2022/03/14 00:03:32;;;;;;;;;8.25;7.00;;;;;8.72;58.25;101411.56;5061240;28;45519;-58
2022/03/14 00:05:57;;;;;;;;;6.00;4.50;;;;;8.70;58.01;101414.16;5062632;28;45561;-59
2022/03/14 00:08:24;;;;;;;;;12.25;11.50;;;;;8.72;58.05;101419.44;5061092;28;45467;-60
2022/03/14 00:10:51;;;;;;;;;5.00;5.00;;;;;8.71;58.04;101425.53;5060900;28;45686;-59
2022/03/14 00:13:17;;;;;;;;;5.00;3.00;;;;;8.70;58.16;101431.63;5062345;28;46268;-59
2022/03/14 00:15:43;;;;;;;;;7.75;6.75;;;;;8.72;58.20;101451.75;5062357;28;45437;-60
2022/03/14 00:18:10;;;;;;;;;7.00;4.75;;;;;8.72;58.11;101450.88;5062416;28;45260;-60
2022/03/14 00:20:35;;;;;;;;;1.25;1.25;;;;;8.72;58.28;101449.13;5061048;28;45890;-59
2022/03/14 00:23:01;;;;;;;;;5.00;4.00;;;;;8.73;58.22;101458.72;5060856;28;46956;-60
2022/03/14 00:25:28;;;;;;;;;8.00;5.25;;;;;8.74;58.09;101451.72;5061804;28;45259;-60
2022/03/14 00:27:54;;;;;;;;;7.00;6.75;;;;;8.73;57.97;101463.09;5062290;28;45244;-59
2022/03/14 00:30:20;;;;;;;;;6.25;5.00;;;;;8.73;58.15;101469.22;5062078;28;45402;-59
2022/03/14 00:32:46;;;;;;;;;6.50;6.50;;;;;8.74;58.34;101477.94;5060377;28;47322;-59
2022/03/14 00:35:12;;;;;;;;;4.75;3.75;;;;;8.76;58.12;101484.94;5062202;28;45709;-59
2022/03/14 00:37:38;;;;;;;;;6.50;6.00;;;;;8.78;58.17;101492.84;5062148;28;45422;-60
2022/03/14 00:40:07;;;;;;;;;5.50;5.50;;;;;8.79;57.88;101494.56;5070507;28;45348;-59
2022/03/14 00:42:33;;;;;;;;;6.00;6.00;;;;;8.75;58.30;101504.19;5061725;28;45285;-60
2022/03/14 00:44:58;;;;;;;;;9.50;5.25;;;;;8.81;57.93;101503.31;5061856;28;45356;-60
2022/03/14 00:47:23;;;;;;;;;5.00;5.00;;;;;8.81;58.26;101497.22;5061986;28;45320;-60
2022/03/14 00:49:49;;;;;;;;;5.25;5.25;;;;;8.82;58.03;101509.44;5061917;28;45213;-60
2022/03/14 00:52:17;;;;;;;;;5.50;5.00;;;;;8.79;58.20;101510.28;5061623;28;45463;-60
2022/03/14 00:54:44;;;;;;;;;6.00;4.25;;;;;8.79;58.54;101515.53;5061845;28;45363;-60
2022/03/14 00:57:09;;;;;;;;;11.25;7.00;;;;;8.84;58.11;101526.06;5060283;28;45502;-60
2022/03/14 00:59:35;;;;;;;;;6.00;5.00;;;;;8.81;58.34;101515.56;5061731;28;45325;-60
2022/03/14 01:02:00;;;;;;;;;8.75;7.00;;;;;8.82;58.28;101527.78;5061462;28;46210;-60
2022/03/14 01:04:26;;;;;;;;;8.25;7.00;;;;;8.84;58.30;101534.81;5061731;28;45319;-60
2022/03/14 01:06:52;;;;;;;;;9.50;5.00;;;;;8.85;58.23;101540.91;5060330;28;45362;-60
2022/03/14 01:09:17;;;;;;;;;6.75;6.00;;;;;8.84;58.31;101550.53;5061377;28;45240;-61
2022/03/14 01:11:44;;;;;;;;;7.00;5.50;;;;;8.87;58.46;101555.78;5061078;27;46283;-60
2022/03/14 01:14:11;;;;;;;;;5.00;4.00;;;;;8.86;58.27;101555.78;5061516;28;45390;-60
2022/03/14 01:16:37;;;;;;;;;5.00;5.00;;;;;8.86;58.19;101550.53;5061421;28;45231;-60
2022/03/14 01:19:04;;;;;;;;;7.25;5.75;;;;;8.86;58.26;101554.03;5060164;28;45415;-60
2022/03/14 01:21:30;;;;;;;;;8.25;6.75;;;;;8.86;58.18;101559.25;5059926;28;47231;-60
2022/03/14 01:23:55;;;;;;;;;5.25;3.50;;;;;8.83;58.26;101569.75;5061168;28;45313;-60
2022/03/14 01:26:21;;;;;;;;;4.75;4.75;;;;;8.84;58.29;101570.59;5061062;28;45406;-60
2022/03/14 01:28:48;;;;;;;;;4.00;4.00;;;;;8.86;58.02;101567.13;5061319;28;45257;-60
2022/03/14 01:31:13;;;;;;;;;4.50;4.50;;;;;8.84;58.44;101571.50;5061206;28;45264;-60
2022/03/14 01:33:39;;;;;;;;;11.75;9.25;;;;;8.87;58.20;101582.00;5061161;28;45264;-60
2022/03/14 01:36:04;;;;;;;;;9.75;5.00;;;;;8.87;58.07;101583.75;5061408;28;45188;-60
2022/03/14 01:38:30;;;;;;;;;4.00;4.00;;;;;8.87;58.18;101589.00;5066908;28;45398;-59
2022/03/14 01:40:55;;;;;;;;;6.75;5.00;;;;;8.90;58.22;101591.63;5062455;28;47379;-59
2022/03/14 01:43:24;;;;;;;;;5.25;5.00;;;;;8.89;58.00;101593.38;5061063;28;45339;-60
2022/03/14 01:45:50;;;;;;;;;7.25;6.00;;;;;8.90;58.29;101592.47;5058954;28;45394;-59
2022/03/14 01:48:15;;;;;;;;;5.75;4.25;;;;;8.89;58.05;101585.50;5060923;28;45470;-60
2022/03/14 01:50:41;;;;;;;;;7.25;5.75;;;;;8.89;57.90;101587.22;5060949;28;45306;-60
2022/03/14 01:53:07;;;;;;;;;7.00;7.00;;;;;8.91;57.98;101590.75;5060973;28;45440;-60
2022/03/14 01:55:34;;;;;;;;;5.00;3.00;;;;;8.94;57.91;101596.00;5059241;28;45249;-60
2022/03/14 01:58:03;;;;;;;;;5.50;4.00;;;;;8.94;58.09;101614.34;5059500;28;45542;-60
2022/03/14 02:00:29;;;;;;;;;6.00;3.00;;;;;8.96;57.88;101615.25;5059287;28;45494;-60
2022/03/14 02:02:55;;;;;;;;;17.00;17.00;;;;;8.98;57.72;101616.16;5060687;28;45358;-60
2022/03/14 02:05:20;;;;;;;;;5.75;4.50;;;;;9.00;57.92;101613.53;5059376;28;45253;-60
2022/03/14 02:07:46;;;;;;;;;10.00;6.50;;;;;9.00;57.60;101614.41;5059054;28;45565;-60
2022/03/14 02:10:11;;;;;;;;;6.00;4.00;;;;;9.00;58.00;101613.53;5058679;28;46034;-60
2022/03/14 02:12:40;;;;;;;;;7.50;6.25;;;;;8.99;57.51;101607.41;5059125;28;45315;-60
2022/03/14 02:15:06;;;;;;;;;5.25;4.00;;;;;9.00;57.56;101609.16;5041770;28;45329;-60
2022/03/14 02:17:31;;;;;;;;;6.00;5.00;;;;;9.01;57.52;101596.94;5057681;28;45250;-60
2022/03/14 02:20:00;;;;;;;;;9.75;8.00;;;;;9.00;57.37;101603.91;5058842;28;46170;-60
2022/03/14 02:22:25;;;;;;;;;4.25;4.00;;;;;9.00;57.64;101597.81;5059040;28;45417;-60
2022/03/14 02:24:51;;;;;;;;;7.00;6.00;;;;;8.96;57.66;101602.16;5058571;28;45453;-60
2022/03/14 02:27:18;;;;;;;;;4.75;3.75;;;;;8.96;57.58;101611.78;5058969;28;45315;-60
2022/03/14 02:29:44;;;;;;;;;4.75;3.00;;;;;8.92;57.60;101606.50;5058545;28;45363;-60
2022/03/14 02:32:11;;;;;;;;;5.00;4.00;;;;;8.92;57.52;101614.34;5058904;28;45291;-60
2022/03/14 02:34:37;;;;;;;;;6.25;5.75;;;;;8.90;57.42;101613.44;5058769;28;45230;-60
2022/03/14 02:37:04;;;;;;;;;5.00;3.25;;;;;8.89;57.35;101611.72;5058823;28;45406;-60
2022/03/14 02:39:32;;;;;;;;;5.75;3.25;;;;;8.87;57.20;101618.69;5066814;28;46157;-61
2022/03/14 02:41:59;;;;;;;;;3.50;2.50;;;;;8.85;57.51;101614.31;5058507;28;45296;-61
2022/03/14 02:44:25;;;;;;;;;4.25;3.00;;;;;8.86;57.33;101631.78;5057306;28;45257;-59
2022/03/14 02:46:50;;;;;;;;;5.75;4.00;;;;;8.84;57.42;101623.03;5057225;28;45553;-59
2022/03/14 02:49:15;;;;;;;;;6.50;4.00;;;;;8.83;57.37;101637.00;5057184;28;48488;-59
2022/03/14 02:51:42;;;;;;;;;5.00;5.00;;;;;8.80;57.48;101637.00;5058550;28;45154;-59
2022/03/14 02:54:09;;;;;;;;;11.75;7.25;;;;;8.80;57.38;101650.97;5058426;28;45446;-60
2022/03/14 02:56:36;;;;;;;;;5.00;4.00;;;;;8.78;57.50;101650.94;5057229;28;45329;-59
2022/03/14 02:59:03;;;;;;;;;8.75;6.75;;;;;8.76;57.29;101652.66;5058388;28;45951;-61
2022/03/14 03:01:28;;;;;;;;;7.75;5.75;;;;;8.78;57.22;101658.81;5058410;28;45295;-60
2022/03/14 03:03:54;;;;;;;;;5.50;3.75;;;;;8.77;57.15;101675.41;5058401;28;45195;-60
2022/03/14 03:06:23;;;;;;;;;4.50;4.00;;;;;8.75;57.08;101671.91;5058423;28;45301;-60
2022/03/14 03:08:53;;;;;;;;;5.25;5.25;;;;;8.74;57.36;101678.00;5013385;28;1298137;-60
2022/03/14 03:11:20;;;;;;;;;4.25;4.25;;;;;8.73;57.21;101689.34;5059509;28;45252;-60
2022/03/14 03:13:47;;;;;;;;;4.25;4.25;;;;;8.73;57.45;101698.94;5059994;28;45307;-60
2022/03/14 03:16:15;;;;;;;;;4.25;4.25;;;;;8.72;57.02;101702.44;5059579;28;45489;-60
2022/03/14 03:18:41;;;;;;;;;9.00;4.00;;;;;8.70;57.20;101709.41;5059782;28;45325;-60
2022/03/14 03:21:07;;;;;;;;;10.75;7.25;;;;;8.69;57.34;101715.50;5059388;28;45318;-60
2022/03/14 03:23:35;;;;;;;;;8.00;5.00;;;;;8.67;57.06;101702.41;5059985;28;45236;-60
2022/03/14 03:26:02;;;;;;;;;6.25;6.25;;;;;8.67;57.23;101714.63;5057716;28;45407;-60
2022/03/14 03:28:28;;;;;;;;;4.75;3.50;;;;;8.65;57.09;101721.59;5058190;28;47163;-60
2022/03/14 03:30:53;;;;;;;;;4.00;4.00;;;;;8.63;57.27;101724.22;5041381;28;45357;-60
2022/03/14 03:33:19;;;;;;;;;3.00;3.00;;;;;8.58;57.25;101725.91;5058515;28;45392;-60
2022/03/14 03:35:44;;;;;;;;;8.00;3.00;;;;;8.55;57.27;101726.75;5058156;28;45439;-60
2022/03/14 03:38:10;;;;;;;;;4.50;2.75;;;;;8.53;57.12;101736.34;5062392;28;45342;-60
2022/03/14 03:40:35;;;;;;;;;4.25;4.00;;;;;8.49;57.32;101742.41;5064642;28;45290;-60
2022/03/14 03:43:01;;;;;;;;;6.75;2.75;;;;;8.44;57.50;101746.69;5059801;28;45315;-60
2022/03/14 03:45:26;;;;;;;;;4.75;3.50;;;;;8.42;57.37;101748.41;5057997;28;45715;-60
2022/03/14 03:47:53;;;;;;;;;6.00;6.00;;;;;8.41;57.18;101752.75;5059328;28;46087;-59
2022/03/14 03:50:19;;;;;;;;;4.75;3.00;;;;;8.38;57.28;101750.09;5059290;28;45261;-60
2022/03/14 03:52:44;;;;;;;;;5.75;4.25;;;;;8.38;57.00;101760.59;5041597;28;45282;-60
2022/03/14 03:55:09;;;;;;;;;5.25;5.00;;;;;8.25;57.37;101749.09;5059036;28;45308;-60
2022/03/14 03:57:35;;;;;;;;;4.75;3.00;;;;;8.31;57.46;101774.47;5059302;28;45479;-60
2022/03/14 04:00:07;;;;;;;;;6.00;5.25;;;;;8.24;57.26;101770.03;5059149;28;45263;-60
2022/03/14 04:02:38;;;;;;;;;4.00;4.00;;;;;8.23;57.39;101770.91;5059545;28;45262;-60
2022/03/14 04:05:05;;;;;;;;;5.75;4.50;;;;;8.23;57.34;101787.47;5059100;28;45368;-60
2022/03/14 04:07:32;;;;;;;;;4.75;4.75;;;;;8.23;57.30;101794.47;5058854;28;46777;-60
2022/03/14 04:09:59;;;;;;;;;5.00;4.00;;;;;8.20;57.38;101795.31;5062210;28;45161;-60
2022/03/14 04:12:26;;;;;;;;;5.75;5.50;;;;;8.18;57.26;101790.91;5062665;28;45258;-60
2022/03/14 04:14:52;;;;;;;;;9.00;5.00;;;;;8.16;57.32;101795.25;5062504;28;45255;-60
2022/03/14 04:17:19;;;;;;;;;6.00;5.00;;;;;8.15;57.33;101804.84;5062410;28;45323;-60
2022/03/14 04:19:44;;;;;;;;;4.25;3.25;;;;;8.10;57.41;101804.78;5062464;28;45528;-60
2022/03/14 04:22:11;;;;;;;;;5.00;3.50;;;;;8.09;57.49;101799.53;5061174;28;45468;-60
2022/03/14 04:24:37;;;;;;;;;8.50;5.50;;;;;8.05;57.25;101806.47;5061994;28;45312;-60
2022/03/14 04:27:03;;;;;;;;;4.50;4.50;;;;;8.04;57.26;101816.91;5061884;28;46099;-60
2022/03/14 04:29:29;;;;;;;;;9.00;8.00;;;;;8.02;57.60;101816.88;5062094;28;45300;-60
2022/03/14 04:31:54;;;;;;;;;6.25;4.75;;;;;8.02;57.14;101818.63;5062336;28;45224;-60
2022/03/14 04:34:20;;;;;;;;;9.00;9.00;;;;;8.01;57.14;101829.94;5060852;28;45169;-60
2022/03/14 04:36:50;;;;;;;;;12.00;8.50;;;;;7.97;57.26;101831.63;5062197;28;45391;-60
2022/03/14 04:39:17;;;;;;;;;5.50;5.00;;;;;7.95;57.39;101836.00;5070892;28;45426;-60
2022/03/14 04:41:43;;;;;;;;;5.00;3.00;;;;;7.94;57.36;101837.72;5060672;28;45301;-60
2022/03/14 04:44:09;;;;;;;;;5.00;5.00;;;;;7.92;57.32;101843.78;5060640;28;45222;-60
2022/03/14 04:46:35;;;;;;;;;6.25;4.50;;;;;7.90;57.27;101840.25;5062144;28;46592;-60
2022/03/14 04:49:01;;;;;;;;;11.25;7.25;;;;;7.88;57.33;101842.84;5061971;28;45249;-62
2022/03/14 04:51:27;;;;;;;;;5.00;4.50;;;;;7.84;57.38;101837.56;5061978;28;45226;-60
2022/03/14 04:53:53;;;;;;;;;5.00;5.00;;;;;7.83;57.81;101854.13;5043594;28;45378;-60
2022/03/14 04:56:18;;;;;;;;;4.50;4.50;;;;;7.80;57.14;101860.19;5061436;28;46523;-60
2022/03/14 04:58:43;;;;;;;;;9.75;8.50;;;;;7.77;57.30;101860.13;5061760;28;45479;-60
2022/03/14 05:01:09;;;;;;;;;6.50;4.25;;;;;7.76;57.43;101851.41;5061903;28;45305;-60
2022/03/14 05:03:35;;;;;;;;;6.50;4.00;;;;;7.68;57.58;101845.19;5061730;28;45248;-59
2022/03/14 05:06:00;;;;;;;;;4.50;4.50;;;;;7.69;57.32;101857.41;5061605;28;46038;-59
2022/03/14 05:08:26;;;;;;;;;8.75;7.25;;;;;7.68;57.32;101857.38;5061475;28;45469;-59
2022/03/14 05:10:51;;;;;;;;;4.00;4.00;;;;;7.62;57.53;101858.16;5061364;28;45395;-59
2022/03/14 05:13:17;;;;;;;;;9.00;4.75;;;;;7.60;57.45;101867.75;5061635;28;45295;-59
2022/03/14 05:15:43;;;;;;;;;7.25;5.00;;;;;7.58;57.36;101866.81;5061673;28;46226;-59
2022/03/14 05:18:08;;;;;;;;;4.75;4.75;;;;;7.54;57.14;101868.50;5061563;28;45299;-59
2022/03/14 05:20:36;;;;;;;;;4.00;3.00;;;;;7.49;57.36;101889.34;5059010;28;45438;-59
2022/03/14 05:23:03;;;;;;;;;8.50;5.25;;;;;7.48;57.35;101887.59;5061411;28;45232;-59
2022/03/14 05:25:30;;;;;;;;;9.00;5.00;;;;;7.45;57.39;101884.94;5060781;28;47298;-59
2022/03/14 05:27:56;;;;;;;;;5.00;4.00;;;;;7.41;57.29;101890.06;5061383;28;45459;-59
2022/03/14 05:30:23;;;;;;;;;4.00;4.00;;;;;7.35;57.35;101888.25;5061417;28;45266;-59
2022/03/14 05:32:48;;;;;;;;;6.50;5.00;;;;;7.35;57.38;101892.59;5061199;28;45266;-59
2022/03/14 05:35:17;;;;;;;;;8.00;4.75;;;;;7.32;57.56;101894.31;5061074;28;45293;-59
2022/03/14 05:37:43;;;;;;;;;6.25;6.25;;;;;7.30;57.39;101897.75;5059791;28;45411;-59
2022/03/14 05:40:10;;;;;;;;;9.00;4.50;;;;;7.27;57.52;101900.28;5069255;28;45414;-59
2022/03/14 05:42:36;;;;;;;;;8.25;5.50;;;;;7.26;57.20;101898.56;5059644;28;45445;-59
2022/03/14 05:45:02;;;;;;;;;19.00;15.75;;;;;7.23;57.49;101914.16;5060853;28;45310;-59
2022/03/14 05:47:28;;;;;;;;;9.00;5.50;;;;;7.22;57.34;101918.53;5059585;28;45255;-59
2022/03/14 05:49:54;;;;;;;;;5.25;3.50;;;;;7.18;57.40;101908.84;5061030;28;45505;-60
2022/03/14 05:52:21;;;;;;;;;11.75;6.50;;;;;7.20;57.31;101919.34;5060917;28;45343;-59
2022/03/14 05:54:48;;;;;;;;;9.75;5.75;;;;;7.19;57.39;101926.28;5060598;28;45332;-59
2022/03/14 05:57:14;;;;;;;;;5.00;4.50;;;;;7.19;57.40;101931.53;5060664;28;45301;-59
2022/03/14 05:59:39;;;;;;;;;5.50;4.50;;;;;7.18;57.51;101927.16;5060887;28;45392;-59
2022/03/14 06:02:04;;;;;;;;;6.25;6.25;;;;;7.17;57.29;101930.63;5060808;28;45326;-59
2022/03/14 06:04:30;;;;;;;;;17.00;15.75;;;;;7.16;57.23;101929.72;5059366;28;45494;-59
2022/03/14 06:06:56;;;;;;;;;5.25;5.25;;;;;7.18;57.28;101941.97;5059216;28;45537;-59
2022/03/14 06:09:25;;;;;;;;;4.75;4.25;;;;;7.18;57.77;101948.06;5060585;28;45309;-60
2022/03/14 06:11:53;;;;;;;;;4.00;4.00;;;;;7.16;57.32;101937.56;5042718;28;45491;-60
2022/03/14 06:14:18;;;;;;;;;9.00;5.75;;;;;7.18;57.45;101936.72;5059240;28;46153;-59
2022/03/14 06:16:44;;;;;;;;;9.00;9.00;;;;;7.18;57.25;101941.97;5059038;28;45358;-60
2022/03/14 06:19:09;;;;;;;;;8.50;8.50;;;;;7.18;57.35;101939.34;5060812;28;45246;-60
2022/03/14 06:21:35;;;;;;;;;11.25;9.50;;;;;7.18;57.06;101942.84;5060346;28;45338;-59
2022/03/14 06:24:02;;;;;;;;;10.00;8.00;;;;;7.21;57.37;101945.53;5060229;28;47165;-59
2022/03/14 06:26:27;;;;;;;;;6.00;6.00;;;;;7.24;57.37;101942.94;5059994;28;45339;-60
2022/03/14 06:28:52;;;;;;;;;22.00;18.50;;;;;7.24;57.18;101947.31;5060361;28;45352;-59
2022/03/14 06:31:18;;;;;;;;;3.00;2.00;;;;;7.25;57.26;101954.31;5059995;28;45548;-59
2022/03/14 06:33:44;;;;;;;;;15.75;12.50;;;;;7.29;57.24;101977.91;5058924;28;47928;-59
2022/03/14 06:36:09;;;;;;;;;10.75;9.00;;;;;7.29;57.13;101985.75;5060130;28;45231;-60
2022/03/14 06:38:35;;;;;;;;;4.00;4.00;;;;;7.33;57.01;101986.69;5082423;27;45548;-60
2022/03/14 06:41:01;;;;;;;;;8.50;5.00;;;;;7.35;57.11;101998.06;5061014;28;45549;-60
2022/03/14 06:43:28;;;;;;;;;12.50;10.00;;;;;7.36;57.10;102006.78;5060030;28;45309;-60
2022/03/14 06:45:53;;;;;;;;;8.50;7.50;;;;;7.37;56.94;102019.94;5059847;28;45423;-60
2022/03/14 06:48:19;;;;;;;;;13.25;10.25;;;;;7.37;57.35;102014.69;5060359;28;45399;-60
2022/03/14 06:50:44;;;;;;;;;7.00;6.50;;;;;7.37;57.14;102022.53;5060037;28;45241;-60
2022/03/14 06:53:09;;;;;;;;;6.75;6.50;;;;;7.37;57.25;102025.16;5060159;28;46231;-60
2022/03/14 06:55:35;;;;;;;;;10.50;8.75;;;;;7.38;57.16;102041.72;5059526;28;45325;-60
2022/03/14 06:58:01;;;;;;;;;10.50;7.25;;;;;7.37;57.22;102048.69;5060169;28;45352;-60
2022/03/14 07:00:29;;;;;;;;;6.00;5.50;;;;;7.36;57.37;102059.09;5058546;28;45561;-60
2022/03/14 07:02:55;;;;;;;;;9.50;5.00;;;;;7.35;57.51;102067.81;5059981;28;46417;-60
2022/03/14 07:05:24;;;;;;;;;6.00;5.50;;;;;7.35;57.34;102067.81;5058651;28;45403;-60
2022/03/14 07:07:50;;;;;;;;;9.00;5.75;;;;;7.34;57.45;102069.53;5059835;28;45244;-60
2022/03/14 07:10:16;;;;;;;;;11.25;9.00;;;;;7.34;57.31;102072.16;5059182;28;45275;-60
2022/03/14 07:12:46;;;;;;;;;10.50;10.00;;;;;7.34;57.40;102066.91;5059579;28;45459;-60
2022/03/14 07:15:17;;;;;;;;;11.00;11.00;;;;;7.36;57.46;102069.56;5059588;28;45407;-59
2022/03/14 07:17:43;;;;;;;;;8.75;7.75;;;;;7.33;57.44;102078.22;5059437;28;45271;-59
2022/03/14 07:20:10;;;;;;;;;6.00;6.00;;;;;7.34;57.60;102082.59;5056156;28;45331;-59
2022/03/14 07:22:59;;;;;;;;;22.75;16.75;;;;;7.35;57.58;102087.00;5059006;28;47654;-60
2022/03/14 07:25:27;;;;;;;;;8.75;6.75;;;;;7.29;57.63;102082.50;5059212;28;45378;-60
2022/03/14 07:27:54;;;;;;;;;11.50;10.50;;;;;7.34;57.49;102087.84;5059557;28;45292;-59
2022/03/14 07:30:20;;;;;;;;;8.25;4.50;;;;;7.35;57.38;102093.97;5059533;28;45485;-59
2022/03/14 07:32:46;;;;;;;;;11.75;9.75;;;;;7.36;57.40;102099.22;5059323;28;45293;-59
2022/03/14 07:35:12;;;;;;;;;10.00;9.25;;;;;7.39;57.65;102099.28;5058287;28;45435;-59
2022/03/14 07:37:38;;;;;;;;;9.25;9.00;;;;;7.35;57.49;102091.34;5059450;28;45308;-59
2022/03/14 07:40:04;;;;;;;;;9.75;7.25;;;;;7.43;57.71;102102.84;5065607;28;45346;-59
2022/03/14 07:42:30;;;;;;;;;8.25;8.00;;;;;7.41;57.58;102108.03;5058158;28;47447;-59
2022/03/14 07:44:55;;;;;;;;;10.00;9.00;;;;;7.43;57.82;102116.81;5061699;28;45361;-59
2022/03/14 07:47:20;;;;;;;;;11.75;10.50;;;;;7.48;57.68;102119.50;5061716;28;45509;-59
2022/03/14 07:49:46;;;;;;;;;11.00;10.50;;;;;7.51;57.80;102126.53;5062783;28;45257;-59
2022/03/14 07:52:11;;;;;;;;;8.00;7.50;;;;;7.53;57.92;102141.41;5062606;28;46206;-59
2022/03/14 07:54:38;;;;;;;;;10.50;9.75;;;;;7.55;57.73;102142.34;5062351;28;45319;-60
2022/03/14 07:57:04;;;;;;;;;12.00;10.00;;;;;7.58;57.93;102141.53;5061506;28;45299;-59
2022/03/14 07:59:29;;;;;;;;;5.50;5.50;;;;;7.59;57.80;102136.31;5062731;28;45248;-59
2022/03/14 08:01:54;;;;;;;;;13.25;8.00;;;;;7.62;57.89;102143.34;5062462;28;45293;-59
2022/03/14 08:04:19;;;;;;;;;10.50;10.00;;;;;7.65;57.67;102153.88;5061359;28;45264;-59
2022/03/14 08:06:45;;;;;;;;;9.75;9.00;;;;;7.63;57.91;102152.97;5062578;28;45230;-60
2022/03/14 08:09:11;;;;;;;;;9.50;8.25;;;;;7.63;58.15;102155.56;5062228;28;45424;-60
2022/03/14 08:11:39;;;;;;;;;10.00;8.00;;;;;7.67;57.83;102154.78;5061973;28;46190;-60
2022/03/14 08:14:07;;;;;;;;;10.25;9.00;;;;;7.70;57.79;102157.47;5062498;28;45293;-59
2022/03/14 08:16:33;;;;;;;;;9.50;8.00;;;;;7.71;57.76;102156.63;5061062;28;45176;-60
2022/03/14 08:18:58;;;;;;;;;8.75;7.25;;;;;7.75;57.73;102150.59;5062451;28;45241;-60
2022/03/14 08:21:24;;;;;;;;;8.00;7.50;;;;;7.78;57.79;102150.63;5062212;28;46233;-59
2022/03/14 08:23:50;;;;;;;;;6.75;6.00;;;;;7.82;57.74;102154.22;5062466;28;45387;-60
2022/03/14 08:26:17;;;;;;;;;7.75;7.25;;;;;7.84;57.75;102164.72;5060608;28;45283;-59
2022/03/14 08:28:43;;;;;;;;;9.25;7.00;;;;;7.86;58.03;102160.38;5062158;28;45481;-60
2022/03/14 08:31:10;;;;;;;;;9.75;7.50;;;;;7.89;57.90;102173.56;5062074;28;46218;-60
2022/03/14 08:33:39;;;;;;;;;9.00;9.00;;;;;7.92;57.92;102178.84;5061020;28;45332;-60
2022/03/14 08:36:08;;;;;;;;;8.75;8.25;;;;;7.98;57.82;102182.44;5062206;28;45166;-60
2022/03/14 08:38:33;;;;;;;;;12.00;9.00;;;;;8.04;57.63;102184.31;5068299;28;45445;-59
2022/03/14 08:40:59;;;;;;;;;13.00;9.50;;;;;8.08;57.93;102185.25;5064320;28;46556;-60
2022/03/14 08:43:24;;;;;;;;;11.25;8.75;;;;;8.12;58.00;102181.84;5062064;28;45284;-59
2022/03/14 08:45:50;;;;;;;;;9.00;8.75;;;;;8.18;57.92;102187.19;5061847;28;45323;-59
2022/03/14 08:48:15;;;;;;;;;13.25;9.00;;;;;8.21;57.91;102183.75;5062094;28;45458;-59
2022/03/14 08:50:41;;;;;;;;;14.00;9.25;;;;;8.30;57.51;102197.91;5061699;28;45974;-60
2022/03/14 08:53:07;;;;;;;;;10.25;8.00;;;;;8.37;57.82;102195.41;5060529;28;45396;-60
2022/03/14 08:55:32;;;;;;;;;7.50;6.75;;;;;8.41;57.63;102200.69;5061499;28;45307;-60
2022/03/14 08:57:58;;;;;;;;;7.50;6.75;;;;;8.48;57.70;102190.38;5061901;28;45201;-59
2022/03/14 09:00:24;;;;;;;;;6.00;6.00;;;;;8.56;57.70;102196.63;5061624;28;45283;-60
2022/03/14 09:02:50;;;;;;;;;7.75;7.00;;;;;8.64;57.84;102204.63;5061716;28;45178;-59
2022/03/14 09:05:16;;;;;;;;;14.00;10.25;;;;;8.69;57.87;102209.09;5061591;28;45493;-60
2022/03/14 09:07:41;;;;;;;;;8.25;7.25;;;;;8.77;57.84;102222.34;5061408;28;45131;-60
2022/03/14 09:10:09;;;;;;;;;7.25;7.25;;;;;8.83;57.72;102213.69;5061121;28;45246;-59
2022/03/14 09:12:36;;;;;;;;;20.75;16.50;;;;;8.91;57.76;102209.47;5061481;28;45428;-59
2022/03/14 09:15:02;;;;;;;;;9.25;6.50;;;;;9.01;57.74;102213.97;5061462;28;45316;-59
2022/03/14 09:17:28;;;;;;;;;13.50;10.00;;;;;9.10;57.89;102216.75;5061282;28;45246;-59
2022/03/14 09:19:54;;;;;;;;;8.25;6.25;;;;;9.19;57.86;102218.63;5061129;28;46005;-59
2022/03/14 09:22:20;;;;;;;;;12.00;10.75;;;;;9.23;57.97;102203.81;5061162;28;45367;-59
2022/03/14 09:24:48;;;;;;;;;8.50;7.00;;;;;9.39;57.60;102218.91;5061020;28;45424;-59
2022/03/14 09:27:13;;;;;;;;;12.75;10.25;;;;;9.44;57.84;102213.75;5061318;28;45271;-59
2022/03/14 09:29:39;;;;;;;;;13.25;10.75;;;;;9.58;57.81;102212.22;5059608;28;48704;-59
2022/03/14 09:32:05;;;;;;;;;12.00;11.25;;;;;9.67;57.52;102221.94;5061310;28;45399;-60
2022/03/14 09:34:31;;;;;;;;;8.50;8.00;;;;;9.75;57.81;102215.03;5061045;28;45500;-60
2022/03/14 09:36:57;;;;;;;;;10.25;6.50;;;;;9.85;57.61;102221.28;5061051;28;45598;-60
2022/03/14 09:39:22;;;;;;;;;11.75;8.00;;;;;9.93;57.53;102214.38;5085168;27;47797;-59
2022/03/14 09:41:51;;;;;;;;;9.00;8.00;;;;;10.05;57.60;102216.28;5060933;28;45212;-60
2022/03/14 09:44:20;;;;;;;;;13.00;9.00;;;;;10.12;57.40;102209.34;5061163;28;45245;-59
2022/03/14 09:46:49;;;;;;;;;9.25;8.00;;;;;10.27;57.56;102218.25;5059575;28;45498;-59
2022/03/14 09:49:16;;;;;;;;;9.00;7.50;;;;;10.42;57.33;102222.84;5060644;28;45243;-59
2022/03/14 09:51:43;;;;;;;;;16.50;7.50;;;;;10.53;57.40;102224.69;5056564;28;45288;-59
2022/03/14 09:54:11;;;;;;;;;11.75;9.50;;;;;10.65;57.45;102229.16;5058708;28;45390;-59
2022/03/14 09:56:43;;;;;;;;;9.75;9.75;;;;;10.78;57.27;102231.91;5059594;28;45516;-59
2022/03/14 09:59:11;;;;;;;;;9.25;8.75;;;;;10.88;57.63;102220.63;5060644;28;45351;-59
2022/03/14 10:01:37;;;;;;;;;10.75;8.00;;;;;10.98;57.43;102221.56;5060482;28;45273;-59
2022/03/14 10:04:02;;;;;;;;;11.75;10.50;;;;;11.13;57.37;102228.69;5059867;28;45399;-60
2022/03/14 10:06:28;;;;;;;;;6.00;4.75;;;;;11.26;57.25;102217.38;5060124;28;45178;-60
2022/03/14 10:08:53;;;;;;;;;8.50;7.75;;;;;11.42;57.19;102228.00;5059616;28;45982;-59
2022/03/14 10:11:19;;;;;;;;;8.75;7.75;;;;;11.53;57.26;102228.94;5059972;28;45495;-60
2022/03/14 10:13:45;;;;;;;;;18.00;10.50;;;;;11.67;57.09;102226.38;5060747;28;45230;-60
2022/03/14 10:16:10;;;;;;;;;10.50;8.00;;;;;11.79;57.18;102236.97;5060501;28;45203;-60
2022/03/14 10:18:50;;;;;;;;;7.00;7.00;;;;;11.94;57.20;102233.53;5060544;28;47063;-59
2022/03/14 10:21:37;;;;;;;;;11.50;8.75;;;;;12.09;56.99;102224.84;5060491;28;45298;-60
2022/03/14 10:24:11;;;;;;;;;14.50;11.25;;;;;12.23;57.09;102230.16;5060647;28;45211;-60
2022/03/14 10:26:39;;;;;;;;;8.75;7.00;;;;;12.38;57.15;102231.03;5059965;28;45442;-59
2022/03/14 10:29:11;;;;;;;;;6.50;6.50;;;;;12.51;56.84;102233.72;5060250;28;46985;-60
2022/03/14 10:31:39;;;;;;;;;12.00;8.50;;;;;12.64;56.77;102234.63;5060364;28;45311;-60
2022/03/14 10:34:12;;;;;;;;;7.50;6.25;;;;;12.79;56.71;102240.78;5060405;28;45411;-59
2022/03/14 10:36:46;;;;;;;;;6.25;6.00;;;;;12.91;56.83;102240.78;5060332;28;45323;-59
2022/03/14 10:39:27;;;;;;;;;5.75;5.25;;;;;13.08;56.83;102245.16;5068721;28;45395;-59
2022/03/14 10:42:15;;;;;;;;;9.75;8.25;;;;;13.23;56.46;102242.53;5060138;28;45292;-58
2022/03/14 10:44:42;;;;;;;;;9.25;8.00;;;;;13.34;56.13;102242.50;5060582;28;45270;-59
2022/03/14 10:47:10;;;;;;;;;8.25;7.50;;;;;13.48;56.47;102232.84;5059947;28;45509;-59
2022/03/14 10:49:38;;;;;;;;;7.25;5.00;;;;;13.61;56.54;102236.31;5059905;28;45452;-59
2022/03/14 10:52:10;;;;;;;;;7.75;6.25;;;;;13.78;56.17;102230.09;5060031;28;45323;-60
2022/03/14 10:54:38;;;;;;;;;8.75;5.00;;;;;13.91;56.06;102221.22;5059659;28;45316;-60
2022/03/14 10:57:09;;;;;;;;;7.25;5.75;;;;;14.11;55.94;102225.53;5059932;28;45358;-60
2022/03/14 10:59:49;;;;;;;;;7.00;5.75;;;;;14.29;55.82;102224.56;5058506;28;47136;-60
2022/03/14 11:02:21;;;;;;;;;5.50;4.25;;;;;14.46;56.37;102222.69;5059818;28;45335;-60
2022/03/14 11:04:48;;;;;;;;;7.75;6.50;;;;;14.65;56.20;102222.56;5060063;28;45228;-59
2022/03/14 11:07:15;;;;;;;;;7.75;5.50;;;;;14.83;55.99;102215.38;5059822;28;45332;-59
2022/03/14 11:09:49;;;;;;;;;6.00;6.00;;;;;15.00;55.95;102216.09;5059202;28;45325;-59
2022/03/14 11:12:17;;;;;;;;;9.75;7.00;;;;;15.21;55.97;102220.31;5059743;28;45358;-59
2022/03/14 11:14:53;;;;;;;;;9.50;6.25;;;;;15.35;55.69;102212.22;5058454;28;45420;-59
2022/03/14 11:17:25;;;;;;;;;10.00;4.75;;;;;15.63;55.40;102221.63;5059671;28;45241;-59
2022/03/14 11:19:51;;;;;;;;;4.25;4.00;;;;;15.85;55.71;102219.66;5063143;28;45381;-59
2022/03/14 11:22:18;;;;;;;;;5.50;4.25;;;;;16.08;55.83;102227.28;5063285;28;45489;-59
2022/03/14 11:24:49;;;;;;;;;5.75;4.75;;;;;16.33;55.65;102218.97;5061675;28;45304;-59
2022/03/14 11:27:21;;;;;;;;;6.75;5.50;;;;;16.62;55.48;102220.31;5053816;28;45572;-59